createdAt,value
2022-08-02T00:00:59.972Z,83.00
2022-08-02T00:03:27.576Z,84.10
2022-08-02T00:05:57.123Z,84.16
2022-08-02T00:08:24.781Z,83.36
2022-08-02T00:10:52.958Z,84.35
2022-08-02T00:13:20.731Z,84.84
2022-08-02T00:15:48.471Z,84.26
2022-08-02T00:18:16.119Z,83.52
2022-08-02T00:20:44.139Z,84.35
2022-08-02T00:23:14.356Z,84.98
2022-08-02T00:25:55.042Z,85.25
2022-08-02T00:28:27.833Z,85.66
2022-08-02T00:30:56.157Z,85.10
2022-08-02T00:34:09.102Z,85.12
2022-08-02T00:36:12.058Z,85.34
2022-08-02T00:38:41.397Z,86.15
2022-08-02T00:41:12.872Z,85.38
2022-08-02T00:43:40.569Z,85.97
2022-08-02T00:46:08.558Z,85.97
2022-08-02T00:48:41.440Z,85.88
2022-08-02T00:51:11.166Z,86.17
2022-08-02T00:53:38.917Z,87.41
2022-08-02T00:56:10.969Z,85.80
2022-08-02T00:58:38.824Z,84.18
2022-08-02T01:01:06.654Z,85.26
2022-08-02T01:03:34.347Z,85.43
2022-08-02T01:06:17.188Z,83.92
2022-08-02T01:08:45.004Z,84.10
2022-08-02T01:11:13.970Z,84.19
2022-08-02T01:13:41.883Z,84.23
2022-08-02T01:16:18.175Z,85.29
2022-08-02T01:18:47.284Z,85.68
2022-08-02T01:21:22.185Z,86.56
2022-08-02T01:23:54.528Z,84.56
2022-08-02T01:26:30.585Z,85.33
2022-08-02T01:29:00.655Z,84.50
2022-08-02T01:31:28.642Z,82.54
2022-08-02T01:33:58.473Z,83.06
2022-08-02T01:36:27.395Z,83.31
2022-08-02T01:38:55.114Z,83.21
2022-08-02T01:41:26.009Z,82.68
2022-08-02T01:43:55.596Z,82.90
2022-08-02T01:46:25.026Z,81.82
2022-08-02T01:48:52.766Z,82.20
2022-08-02T01:51:40.783Z,81.32
2022-08-02T01:54:08.683Z,83.01
2022-08-02T01:56:36.753Z,83.65
2022-08-02T01:59:04.829Z,81.99
2022-08-02T02:01:35.286Z,80.18
2022-08-02T02:04:02.952Z,80.09
2022-08-02T02:06:30.678Z,80.82
2022-08-02T02:09:01.449Z,82.70
2022-08-02T02:12:14.188Z,83.89
2022-08-02T02:14:16.848Z,82.64
2022-08-02T02:16:46.580Z,82.17
2022-08-02T02:19:21.350Z,80.44
2022-08-02T02:21:50.814Z,81.13
2022-08-02T02:24:18.520Z,80.95
2022-08-02T02:26:52.254Z,78.63
2022-08-02T02:29:26.818Z,77.53
2022-08-02T02:31:56.367Z,78.23
2022-08-02T02:34:26.545Z,77.27
2022-08-02T02:36:54.229Z,77.86
2022-08-02T02:39:22.479Z,78.03
2022-08-02T02:41:50.201Z,79.31
2022-08-02T02:44:35.734Z,78.97
2022-08-02T02:47:05.465Z,78.04
2022-08-02T02:49:34.033Z,78.49
2022-08-02T02:52:02.935Z,78.13
2022-08-02T02:54:34.896Z,77.45
2022-08-02T02:57:06.016Z,78.33
2022-08-02T02:59:48.914Z,77.87
2022-08-02T03:02:18.798Z,77.74
2022-08-02T03:04:55.741Z,78.16
2022-08-02T03:07:24.452Z,78.87
2022-08-02T03:09:53.813Z,79.12
2022-08-02T03:12:24.847Z,79.37
2022-08-02T03:14:55.309Z,78.26
2022-08-02T03:17:24.907Z,78.54
2022-08-02T03:19:52.499Z,77.64
2022-08-02T03:22:20.441Z,79.81
2022-08-02T03:24:48.490Z,79.62
2022-08-02T03:27:16.405Z,79.07
2022-08-02T03:29:44.322Z,81.00
2022-08-02T03:32:12.304Z,80.79
2022-08-02T03:34:43.792Z,81.64
2022-08-02T03:37:11.948Z,80.24
2022-08-02T03:39:51.114Z,79.47
2022-08-02T03:42:21.293Z,76.58
2022-08-02T03:44:49.546Z,76.66
2022-08-02T03:47:17.650Z,74.38
2022-08-02T03:49:47.071Z,76.61
2022-08-02T03:52:16.928Z,77.87
2022-08-02T03:54:45.999Z,77.97
2022-08-02T03:57:13.994Z,76.71
2022-08-02T03:59:42.160Z,76.11
2022-08-02T04:02:18.937Z,76.71
2022-08-02T04:04:48.477Z,74.47
2022-08-02T04:07:18.531Z,75.35
2022-08-02T04:10:04.840Z,75.49
2022-08-02T04:12:34.475Z,73.82
2022-08-02T04:15:02.246Z,74.09
2022-08-02T04:17:32.453Z,74.72
2022-08-02T04:20:02.816Z,75.35
2022-08-02T04:22:32.084Z,74.56
2022-08-02T04:25:00.524Z,71.81
2022-08-02T04:27:50.814Z,67.61
2022-08-02T04:30:17.158Z,65.99
2022-08-02T04:32:46.835Z,65.71
2022-08-02T04:35:20.367Z,65.87
2022-08-02T04:38:09.860Z,66.60
2022-08-02T04:40:36.790Z,67.77
2022-08-02T04:43:04.828Z,69.92
2022-08-02T04:45:32.962Z,71.56
2022-08-02T04:48:07.659Z,72.19
2022-08-02T04:50:43.061Z,73.68
2022-08-02T04:53:11.123Z,74.54
2022-08-02T04:55:38.808Z,74.13
2022-08-02T04:58:23.836Z,72.86
2022-08-02T05:00:54.481Z,73.97
2022-08-02T05:03:22.257Z,74.59
2022-08-02T05:05:51.327Z,74.71
2022-08-02T05:08:19.023Z,73.91
2022-08-02T05:10:47.043Z,72.04
2022-08-02T05:13:15.012Z,71.05
2022-08-02T05:15:43.070Z,72.85
2022-08-02T05:18:10.816Z,73.11
2022-08-02T05:20:39.601Z,75.14
2022-08-02T05:23:09.250Z,75.49
2022-08-02T05:25:39.564Z,74.01
2022-08-02T05:28:11.299Z,73.04
2022-08-02T05:30:39.432Z,71.48
2022-08-02T05:33:08.774Z,71.98
2022-08-02T05:35:36.548Z,72.80
2022-08-02T05:38:04.752Z,70.98
2022-08-02T05:40:54.292Z,71.67
2022-08-02T05:43:24.256Z,72.53
2022-08-02T05:45:53.610Z,73.47
2022-08-02T05:48:24.491Z,73.25
2022-08-02T05:50:58.337Z,72.28
2022-08-02T05:53:32.126Z,71.88
2022-08-02T05:56:11.578Z,70.24
2022-08-02T05:58:43.056Z,68.97
2022-08-02T06:01:11.358Z,68.11
2022-08-02T06:03:43.390Z,68.81
2022-08-02T06:06:17.932Z,66.77
2022-08-02T06:08:47.958Z,66.24
2022-08-02T06:11:18.422Z,67.06
2022-08-02T06:13:49.093Z,65.35
2022-08-02T06:16:18.092Z,65.46
2022-08-02T06:19:03.153Z,65.28
2022-08-02T06:22:31.690Z,65.27
2022-08-02T06:24:19.746Z,65.67
2022-08-02T06:26:52.616Z,65.81
2022-08-02T06:29:20.902Z,64.75
2022-08-02T06:31:53.737Z,65.06
2022-08-02T06:34:21.705Z,64.04
2022-08-02T06:36:51.228Z,63.13
2022-08-02T06:39:23.437Z,63.11
2022-08-02T06:41:53.097Z,63.23
2022-08-02T06:44:45.544Z,63.81
2022-08-02T06:47:11.822Z,63.40
2022-08-02T06:49:51.893Z,63.33
2022-08-02T06:52:27.071Z,64.15
2022-08-02T06:54:56.393Z,62.21
2022-08-02T06:57:25.342Z,61.56
2022-08-02T06:59:57.006Z,63.18
2022-08-02T07:02:24.799Z,61.76
2022-08-02T07:04:53.485Z,62.85
2022-08-02T07:07:21.389Z,61.47
2022-08-02T07:09:56.764Z,61.28
2022-08-02T07:12:33.897Z,61.45
2022-08-02T07:15:03.543Z,61.21
2022-08-02T07:17:32.042Z,61.95
2022-08-02T07:19:59.993Z,62.85
2022-08-02T07:22:28.389Z,63.19
2022-08-02T07:24:56.674Z,61.72
2022-08-02T07:27:27.823Z,60.08
2022-08-02T07:29:57.886Z,60.36
2022-08-02T07:32:26.498Z,60.37
2022-08-02T07:34:58.034Z,60.35
2022-08-02T07:37:53.387Z,59.33
2022-08-02T07:40:19.948Z,59.08
2022-08-02T07:42:49.448Z,57.98
2022-08-02T07:45:18.753Z,58.33
2022-08-02T07:47:49.417Z,59.07
2022-08-02T07:50:18.268Z,59.54
2022-08-02T07:52:46.366Z,58.63
2022-08-02T07:55:14.823Z,58.43
2022-08-02T07:57:46.395Z,60.23
2022-08-02T08:00:16.791Z,58.99
2022-08-02T08:02:46.393Z,59.34
2022-08-02T08:05:14.272Z,60.40
2022-08-02T08:07:41.972Z,62.21
2022-08-02T08:10:10.445Z,63.54
2022-08-02T08:12:43.120Z,60.20
2022-08-02T08:15:17.897Z,61.60
2022-08-02T08:17:48.153Z,59.84
2022-08-02T08:20:16.377Z,59.29
2022-08-02T08:22:47.473Z,58.89
2022-08-02T08:25:15.273Z,57.76
2022-08-02T08:27:54.099Z,59.98
2022-08-02T08:30:22.571Z,58.18
2022-08-02T08:32:51.750Z,57.74
2022-08-02T08:35:19.661Z,55.68
2022-08-02T08:37:47.613Z,57.75
2022-08-02T08:40:19.423Z,58.44
2022-08-02T08:42:47.787Z,57.24
2022-08-02T08:45:18.019Z,58.93
2022-08-02T08:47:46.170Z,59.40
2022-08-02T08:50:24.537Z,57.83
2022-08-02T08:52:54.726Z,57.25
2022-08-02T08:55:26.674Z,58.56
2022-08-02T08:57:58.713Z,58.61
2022-08-02T09:00:27.352Z,58.87
2022-08-02T09:02:57.451Z,56.47
2022-08-02T09:05:26.594Z,55.61
2022-08-02T09:07:54.443Z,55.66
2022-08-02T09:10:38.703Z,55.58
2022-08-02T09:13:37.765Z,56.78
2022-08-02T09:16:12.138Z,56.35
2022-08-02T09:18:45.723Z,56.22
2022-08-02T09:21:17.927Z,55.47
2022-08-02T09:23:46.273Z,55.52
2022-08-02T09:26:15.726Z,56.40
2022-08-02T09:28:44.866Z,55.38
2022-08-02T09:31:16.298Z,54.59
2022-08-02T09:33:46.952Z,55.59
2022-08-02T09:36:17.129Z,56.70
2022-08-02T09:38:56.566Z,54.78
2022-08-02T09:41:28.217Z,54.63
2022-08-02T09:44:05.334Z,53.84
2022-08-02T09:46:38.281Z,54.30
2022-08-02T09:49:08.568Z,54.07
2022-08-02T09:51:39.298Z,53.07
2022-08-02T09:54:09.322Z,53.45
2022-08-02T09:56:44.565Z,55.16
2022-08-02T09:59:13.000Z,52.71
2022-08-02T10:01:50.406Z,53.06
2022-08-02T10:04:21.872Z,54.03
2022-08-02T10:06:55.218Z,54.59
2022-08-02T10:09:23.012Z,54.88
2022-08-02T10:11:51.169Z,54.03
2022-08-02T10:14:22.910Z,52.38
2022-08-02T10:16:50.635Z,51.26
2022-08-02T10:19:38.770Z,50.21
2022-08-02T10:22:13.557Z,51.09
2022-08-02T10:24:48.463Z,51.78
2022-08-02T10:27:17.033Z,53.89
2022-08-02T10:29:53.706Z,54.01
2022-08-02T10:32:23.676Z,53.82
2022-08-02T10:34:57.592Z,53.79
2022-08-02T10:37:33.021Z,53.54
2022-08-02T10:40:02.466Z,53.80
2022-08-02T10:42:46.949Z,54.32
2022-08-02T10:45:21.063Z,52.09
2022-08-02T10:48:07.223Z,52.09
2022-08-02T10:50:55.067Z,51.65
2022-08-02T10:53:28.059Z,51.93
2022-08-02T10:55:56.953Z,52.28
2022-08-02T10:58:29.685Z,51.25
2022-08-02T11:00:59.197Z,52.43
2022-08-02T11:03:40.093Z,51.63
2022-08-02T11:06:08.701Z,51.87
2022-08-02T11:08:42.171Z,51.27
2022-08-02T11:11:20.331Z,50.43
2022-08-02T11:14:10.938Z,49.71
2022-08-02T11:17:02.740Z,48.18
2022-08-02T11:19:30.774Z,48.30
2022-08-02T11:22:11.677Z,47.64
2022-08-02T11:24:41.506Z,48.84
2022-08-02T11:27:10.372Z,49.16
2022-08-02T11:29:39.396Z,50.22
2022-08-02T11:32:07.978Z,49.63
2022-08-02T11:34:37.697Z,50.39
2022-08-02T11:37:08.386Z,49.08
2022-08-02T11:39:37.249Z,48.70
2022-08-02T11:42:06.788Z,47.07
2022-08-02T11:44:41.220Z,46.48
2022-08-02T11:47:14.168Z,45.91
2022-08-02T11:49:43.078Z,44.18
2022-08-02T11:52:12.248Z,43.34
2022-08-02T11:54:42.436Z,42.34
2022-08-02T11:57:27.603Z,43.30
2022-08-02T11:59:55.927Z,43.08
2022-08-02T12:02:27.145Z,42.49
2022-08-02T12:04:58.671Z,42.14
2022-08-02T12:07:34.849Z,41.82
2022-08-02T12:10:05.649Z,41.82
2022-08-02T12:12:37.748Z,40.13
2022-08-02T12:15:06.026Z,41.04
2022-08-02T12:18:00.169Z,41.48
2022-08-02T12:20:37.117Z,40.90
2022-08-02T12:23:06.075Z,42.37
2022-08-02T12:25:36.283Z,41.53
2022-08-02T12:28:22.520Z,41.68
2022-08-02T12:30:52.930Z,42.30
2022-08-02T12:33:21.987Z,42.57
2022-08-02T12:35:52.847Z,43.37
2022-08-02T12:38:23.190Z,43.17
2022-08-02T12:40:51.052Z,43.42
2022-08-02T12:43:21.357Z,43.64
2022-08-02T12:45:51.337Z,44.25
2022-08-02T12:48:36.744Z,44.20
2022-08-02T12:51:20.491Z,44.08
2022-08-02T12:53:59.647Z,44.60
2022-08-02T12:56:28.952Z,44.62
2022-08-02T12:58:58.235Z,43.82
2022-08-02T13:01:27.105Z,42.76
2022-08-02T13:04:09.898Z,43.22
2022-08-02T13:06:44.526Z,43.59
2022-08-02T13:09:14.240Z,43.85
2022-08-02T13:11:44.286Z,43.80
2022-08-02T13:14:14.820Z,42.73
2022-08-02T13:16:43.108Z,42.12
2022-08-02T13:19:15.901Z,41.02
2022-08-02T13:22:01.965Z,40.77
2022-08-02T13:24:40.843Z,40.57
2022-08-02T13:27:23.502Z,41.52
2022-08-02T13:29:54.165Z,40.60
2022-08-02T13:32:24.847Z,40.31
2022-08-02T13:34:52.575Z,39.19
2022-08-02T13:37:20.407Z,38.68
2022-08-02T13:40:18.839Z,39.58
2022-08-02T13:42:39.953Z,39.44
2022-08-02T13:45:12.945Z,39.76
2022-08-02T13:48:04.150Z,37.62
2022-08-02T13:50:30.338Z,37.94
2022-08-02T13:52:58.635Z,38.69
2022-08-02T13:55:29.294Z,38.46
2022-08-02T13:57:56.992Z,37.40
2022-08-02T14:00:35.589Z,37.45
2022-08-02T14:03:07.839Z,38.13
2022-08-02T14:05:47.804Z,37.50
2022-08-02T14:08:17.500Z,37.61
2022-08-02T14:10:46.847Z,37.57
2022-08-02T14:13:14.678Z,37.91
2022-08-02T14:15:44.160Z,39.40
2022-08-02T14:18:14.782Z,39.24
2022-08-02T14:20:49.828Z,39.39
2022-08-02T14:23:46.887Z,39.43
2022-08-02T14:26:14.181Z,39.26
2022-08-02T14:28:54.632Z,38.61
2022-08-02T14:31:23.962Z,38.10
2022-08-02T14:33:52.265Z,38.84
2022-08-02T14:36:27.590Z,37.10
2022-08-02T14:38:55.785Z,36.15
2022-08-02T14:41:23.780Z,35.46
2022-08-02T14:44:10.612Z,36.80
2022-08-02T14:46:43.490Z,37.21
2022-08-02T14:49:14.238Z,35.98
2022-08-02T14:51:47.774Z,37.92
2022-08-02T14:54:18.369Z,37.85
2022-08-02T14:56:48.309Z,37.82
2022-08-02T14:59:16.540Z,37.76
2022-08-02T15:01:50.491Z,38.40
2022-08-02T15:04:18.640Z,37.35
2022-08-02T15:06:46.333Z,38.14
2022-08-02T15:09:14.560Z,38.17
2022-08-02T15:11:47.137Z,38.15
2022-08-02T15:14:18.466Z,36.93
2022-08-02T15:16:56.999Z,36.25
2022-08-02T15:19:28.699Z,36.58
2022-08-02T15:22:16.248Z,36.52
2022-08-02T15:24:44.873Z,35.70
2022-08-02T15:27:15.484Z,37.33
2022-08-02T15:29:43.465Z,36.72
2022-08-02T15:32:13.411Z,36.92
2022-08-02T15:34:41.465Z,37.98
2022-08-02T15:37:09.205Z,38.12
2022-08-02T15:39:36.978Z,38.29
2022-08-02T15:42:04.796Z,38.73
2022-08-02T15:44:32.449Z,37.46
2022-08-02T15:47:00.105Z,37.55
2022-08-02T15:49:29.194Z,37.46
2022-08-02T15:51:56.965Z,37.01
2022-08-02T15:54:24.620Z,36.49
2022-08-02T15:56:52.273Z,36.71
2022-08-02T15:59:19.934Z,38.21
2022-08-02T16:01:48.605Z,37.01
2022-08-02T16:04:19.128Z,40.69
2022-08-02T16:06:53.009Z,42.25
2022-08-02T16:09:25.500Z,40.37
2022-08-02T16:11:53.218Z,39.54
2022-08-02T16:14:24.381Z,40.13
2022-08-02T16:16:52.172Z,39.15
2022-08-02T16:19:47.516Z,39.59
2022-08-02T16:22:11.214Z,39.52
2022-08-02T16:24:39.213Z,39.75
2022-08-02T16:27:08.362Z,39.85
2022-08-02T16:29:37.422Z,39.78
2022-08-02T16:32:08.121Z,40.07
2022-08-02T16:35:04.038Z,40.00
2022-08-02T16:37:27.437Z,40.29
2022-08-02T16:40:17.397Z,40.00
2022-08-02T16:42:48.823Z,39.65
2022-08-02T16:45:20.705Z,39.70
2022-08-02T16:47:56.518Z,40.42
2022-08-02T16:50:29.221Z,40.21
2022-08-02T16:53:07.287Z,39.55
2022-08-02T16:55:35.322Z,39.39
2022-08-02T16:58:03.148Z,38.82
2022-08-02T17:00:30.767Z,39.52
2022-08-02T17:02:59.265Z,39.19
2022-08-02T17:05:37.678Z,39.81
2022-08-02T17:08:16.937Z,40.46
2022-08-02T17:10:48.461Z,40.43
2022-08-02T17:13:19.533Z,40.68
2022-08-02T17:16:17.434Z,41.18
2022-08-02T17:18:42.475Z,41.48
2022-08-02T17:21:28.048Z,41.64
2022-08-02T17:24:06.194Z,41.14
2022-08-02T17:26:35.770Z,40.60
2022-08-02T17:32:05.281Z,41.68
2022-08-02T17:34:33.639Z,41.75
2022-08-02T17:37:01.991Z,42.00
2022-08-02T17:39:43.838Z,42.34
2022-08-02T17:42:19.796Z,42.33
2022-08-02T17:44:49.266Z,41.90
2022-08-02T17:47:19.238Z,42.30
2022-08-02T17:49:49.707Z,42.46
2022-08-02T17:52:51.654Z,42.51
2022-08-02T17:55:10.800Z,42.33
2022-08-02T17:57:55.535Z,42.34
2022-08-02T18:00:26.842Z,42.30
2022-08-02T18:02:55.501Z,42.45
2022-08-02T18:05:24.055Z,42.42
2022-08-02T18:08:07.587Z,42.55
2022-08-02T18:10:37.693Z,42.89
2022-08-02T18:13:06.648Z,43.59
2022-08-02T18:15:37.281Z,43.39
2022-08-02T18:18:05.040Z,43.63
2022-08-02T18:20:33.846Z,43.54
2022-08-02T18:23:01.449Z,43.62
2022-08-02T18:25:36.989Z,43.90
2022-08-02T18:28:13.170Z,43.85
2022-08-02T18:30:40.946Z,43.48
2022-08-02T18:34:00.017Z,43.08
2022-08-02T18:35:58.229Z,43.60
2022-08-02T18:38:27.013Z,43.28
2022-08-02T18:40:55.717Z,43.48
2022-08-02T18:43:29.574Z,43.52
2022-08-02T18:46:07.291Z,43.50
2022-08-02T18:48:47.041Z,44.22
2022-08-02T18:51:19.703Z,44.65
2022-08-02T18:53:51.686Z,44.70
2022-08-02T18:56:24.739Z,44.73
2022-08-02T18:58:57.732Z,44.56
2022-08-02T19:01:33.404Z,44.39
2022-08-02T19:04:04.239Z,44.50
2022-08-02T19:06:35.258Z,45.06
2022-08-02T19:09:11.553Z,44.97
2022-08-02T19:11:48.263Z,44.75
2022-08-02T19:14:27.512Z,44.52
2022-08-02T19:16:56.501Z,44.52
2022-08-02T19:19:28.954Z,44.14
2022-08-02T19:22:16.745Z,44.61
2022-08-02T19:24:45.856Z,44.98
2022-08-02T19:27:14.645Z,45.10
2022-08-02T19:29:49.100Z,45.26
2022-08-02T19:32:40.041Z,45.12
2022-08-02T19:35:28.279Z,45.58
2022-08-02T19:37:58.887Z,45.57
2022-08-02T19:40:28.791Z,45.74
2022-08-02T19:44:24.048Z,45.24
2022-08-02T19:45:50.295Z,45.56
2022-08-02T19:48:24.447Z,45.45
2022-08-02T19:51:08.297Z,45.73
2022-08-02T19:53:48.422Z,45.68
2022-08-02T19:56:21.550Z,45.94
2022-08-02T19:58:54.305Z,46.78
2022-08-02T20:01:37.043Z,47.00
2022-08-02T20:04:07.568Z,46.90
2022-08-02T20:06:42.791Z,47.49
2022-08-02T20:09:13.633Z,47.52
2022-08-02T20:11:54.334Z,47.48
2022-08-02T20:14:27.334Z,47.63
2022-08-02T20:16:57.197Z,47.52
2022-08-02T20:19:25.139Z,48.76
2022-08-02T20:22:00.096Z,48.09
2022-08-02T20:24:29.869Z,48.53
2022-08-02T20:26:58.862Z,49.89
2022-08-02T20:29:44.050Z,50.08
2022-08-02T20:32:22.474Z,49.60
2022-08-02T20:34:50.987Z,49.43
2022-08-02T20:38:01.473Z,49.46
2022-08-02T20:40:09.425Z,48.95
2022-08-02T20:42:37.525Z,49.77
2022-08-02T20:45:07.749Z,50.07
2022-08-02T20:47:39.341Z,49.93
2022-08-02T20:50:31.866Z,49.36
2022-08-02T20:53:00.035Z,49.78
2022-08-02T20:55:34.182Z,50.30
2022-08-02T20:58:02.756Z,50.24
2022-08-02T21:00:31.696Z,51.47
2022-08-02T21:03:01.073Z,52.22
2022-08-02T21:05:54.279Z,50.84
2022-08-02T21:08:21.268Z,51.41
2022-08-02T21:10:52.182Z,51.37
2022-08-02T21:13:27.966Z,51.47
2022-08-02T21:16:00.118Z,51.72
2022-08-02T21:18:39.076Z,51.63
2022-08-02T21:21:11.371Z,50.78
2022-08-02T21:23:45.035Z,51.74
2022-08-02T21:26:25.766Z,51.34
2022-08-02T21:28:56.561Z,51.37
2022-08-02T21:31:29.833Z,51.14
2022-08-02T21:34:01.366Z,50.88
2022-08-02T21:36:31.354Z,52.40
2022-08-02T21:39:00.279Z,53.60
2022-08-02T21:41:38.476Z,54.91
2022-08-02T21:44:13.663Z,54.83
2022-08-02T21:46:44.517Z,55.06
2022-08-02T21:49:14.372Z,55.16
2022-08-02T21:51:42.729Z,55.51
2022-08-02T21:54:17.876Z,55.51
2022-08-02T21:56:51.890Z,55.76
2022-08-02T21:59:25.639Z,55.44
2022-08-02T22:01:54.750Z,54.58
2022-08-02T22:04:29.132Z,55.79
2022-08-02T22:06:57.669Z,54.81
2022-08-02T22:09:43.601Z,55.70
2022-08-02T22:12:17.682Z,54.80
2022-08-02T22:14:49.518Z,55.96
2022-08-02T22:17:30.468Z,54.82
2022-08-02T22:20:12.794Z,54.39
2022-08-02T22:22:41.422Z,54.59
2022-08-02T22:25:27.212Z,54.73
2022-08-02T22:28:34.700Z,55.56
2022-08-02T22:30:51.135Z,56.20
2022-08-02T22:33:38.255Z,55.95
2022-08-02T22:36:12.045Z,55.11
2022-08-02T22:38:44.614Z,55.59
2022-08-02T22:41:13.904Z,55.10
2022-08-02T22:43:41.796Z,54.13
2022-08-02T22:46:15.630Z,54.03
2022-08-02T22:48:44.773Z,54.08
2022-08-02T22:51:15.668Z,53.58
2022-08-02T22:53:43.731Z,53.98
2022-08-02T22:56:11.510Z,53.74
2022-08-02T22:58:50.344Z,40.93
2022-08-02T22:59:12.191Z,53.68
2022-08-02T23:01:27.268Z,53.80
2022-08-02T23:03:54.995Z,54.04
2022-08-02T23:06:24.326Z,54.05
2022-08-02T23:08:52.130Z,55.16
2022-08-02T23:11:19.887Z,55.06
2022-08-02T23:13:47.687Z,55.26
2022-08-02T23:16:36.841Z,54.73
2022-08-02T23:19:21.760Z,56.48
2022-08-02T23:22:02.376Z,56.98
2022-08-02T23:24:33.799Z,57.08
2022-08-02T23:27:06.685Z,57.96
2022-08-02T23:29:37.091Z,58.65
2022-08-02T23:32:05.619Z,58.93
2022-08-02T23:34:34.479Z,57.39
2022-08-02T23:37:04.931Z,57.78
2022-08-02T23:39:32.961Z,57.50
2022-08-02T23:42:00.732Z,58.54
2022-08-02T23:44:28.962Z,57.97
2022-08-02T23:47:00.397Z,59.39
2022-08-02T23:49:29.372Z,59.14
2022-08-02T23:52:01.486Z,60.33
2022-08-02T23:54:31.348Z,60.81
2022-08-02T23:56:59.302Z,61.64
2022-08-02T23:59:27.025Z,61.39
